x

San Juan, Pr (41053) Wave Buoy

1:00pm - Wed 23rd Jul 2014 All times are AST. -4 hours from GMT.

  • Sig Wave height 3.0ft
  • Peak Period 6s
  • Wind
    18mph, 22mph gusts
  • Sea Temp 82°f
  • Air Temp 83°f
  • Sea Pressure 1017.6mb
  • San Juan, Pr
  • San Juan, Pr

More Historic Weather Station data

Upgrade to MSW Pro to gain access to the past 30 days of data for over 8000 Wavebouys and Weather Stations around the globe.

Join Pro

Comparision Forecast

View Surf forecast
   
Wed 07/23 1:00pm 3ft 6s 18 22 mph 1017.6mb 82f 83f
12:00pm 3ft 5s 16 20 mph 1018.2mb 82f 83f
11:00am 3ft 7s 16 18 mph 1018.3mb 82f 83f
10:00am 3ft 7s 13 18 mph 1018.4mb 82f 83f
9:00am 3ft 7s 11 13 mph 1018.5mb 82f 83f
8:00am 3.5ft 5s 7 9 mph 1018.3mb 82f 83f
7:00am 3.5ft 5s 11 13 mph 1017.7mb 82f 82f
6:00am 3.5ft 5s 13 16 mph 1017mb 82f 82f
5:00am 3.5ft 5s 11 16 mph 1016.5mb 82f 82f
4:00am 3.5ft 6s 11 16 mph 1016mb 82f 82f
3:00am 3.5ft 6s 13 16 mph 1016.4mb 82f 82f
2:00am 4ft 5s 16 20 mph 1016.6mb 82f 82f
1:00am 3.5ft 5s 18 20 mph 1017.1mb 82f 82f
12:00am 3.5ft 5s 16 20 mph 1017.8mb 82f 83f
Tue 07/22 11:00pm 3.5ft 5s 18 20 mph 1018mb 82f 83f
10:00pm 3.5ft 5s 11 13 mph 1017.7mb 82f 83f
9:00pm 3ft 7s 13 16 mph 1017.4mb 82f 82f
8:00pm 3ft 5s 13 16 mph 1017.1mb 82f 83f
7:00pm 3ft 6s 13 16 mph 1016.5mb 82f 83f
6:00pm 3ft 6s 13 16 mph 1016.2mb 82f 83f
5:00pm 3.5ft 6s 16 18 mph 1016mb 82f 82f
4:00pm 3.5ft 6s 18 22 mph 1015.9mb 82f 83f
3:00pm 3.5ft 5s 18 22 mph 1016.2mb 82f 83f
2:00pm 3.5ft 5s 16 20 mph 1016.8mb 82f 83f
1:00pm 3.5ft 5s 18 22 mph 1017.4mb 82f 83f
12:00pm 3.5ft 5s 18 20 mph 1017.7mb 82f 83f
11:00am 3ft 6s 7 9 mph 1018.3mb 81f 81f
10:00am 3ft 5s 9 11 mph 1018.1mb 81f 83f
9:00am 3.5ft 5s 7 9 mph 1018.3mb 81f 80f
8:00am 3.5ft 5s 11 13 mph 1017.9mb 82f 81f
7:00am 3.5ft 5s 4
mph
1017.5mb 81f 80f
6:00am 3ft 5s 7
mph
1017mb 81f 79f
5:00am 3.5ft 5s 7 11 mph 1016.4mb 81f 80f
4:00am 3.5ft 5s 11 13 mph 1016.2mb 81f 81f
3:00am 3.5ft 5s 18 20 mph 1016.2mb 82f 82f
2:00am 3ft 5s 16 22 mph 1016.4mb 82f 81f
1:00am 3ft 5s 16 18 mph 1016.7mb 82f 82f
12:00am 3.5ft 5s 16 20 mph 1017.2mb 81f 82f
Mon 07/21 11:00pm 3.5ft 4s 13 18 mph 1017.7mb 81f 82f
10:00pm 3ft 6s 13 18 mph 1017.8mb 81f 83f
9:00pm 3ft 5s 16 20 mph 1017.2mb 82f 82f
8:00pm 3ft 6s 13 16 mph 1016.9mb 82f 83f
7:00pm 3ft 5s 13 18 mph 1016.7mb 82f 83f
6:00pm 2.5ft 6s 16 18 mph 1016.4mb 82f 83f
5:00pm 2.5ft 5s 18 20 mph 1015.9mb 82f 83f
4:00pm 3ft 4s 20 22 mph 1016mb 82f 83f
3:00pm 2.5ft 5s 20 25 mph 1016.2mb 82f 83f
2:00pm 2.5ft 5s 18 22 mph 1016.6mb 83f 83f
1:00pm 2.5ft 4s 18 22 mph 1017.3mb 83f 83f
12:00pm 2.5ft 5s 18 20 mph 1017.7mb 83f 83f
11:00am 2.5ft 5s 16 20 mph 1017.9mb 82f 82f
10:00am 2.5ft 5s 16 18 mph 1018.1mb 82f 82f
9:00am 2.5ft 5s 9 11 mph 1018.2mb 82f 82f
8:00am 2.5ft 5s 11 13 mph 1018mb 81f 82f
7:00am 2.5ft 5s 9 13 mph 1017.8mb 81f 82f
6:00am 2.5ft 4s 9 11 mph 1017.4mb 81f 81f
5:00am 3ft 4s 9 11 mph 1016.8mb 81f 82f
4:00am 3ft 5s 11 13 mph 1016.5mb 82f 82f
3:00am 3.5ft 4s 11 13 mph 1016.5mb 82f 82f
2:00am 3ft 4s 13 16 mph 1016.9mb 82f 82f
1:00am 2.5ft 4s 11 16 mph 1017.2mb 82f 82f
12:00am 2.5ft 4s 11 16 mph 1017.7mb 82f 82f
Sun 07/20 11:00pm 2.5ft 8s 11 13 mph 1018mb 83f 82f
10:00pm 2.5ft 8s 11 13 mph 1018mb 82f 82f
9:00pm 2ft 6s 13 18 mph 1017.6mb 82f 83f
8:00pm 2ft 6s 13 16 mph 1017.3mb 82f 83f
7:00pm 2.5ft 5s 13 18 mph 1016.8mb 82f 83f
6:00pm 2.5ft 6s 18 20 mph 1016.1mb 83f 83f
5:00pm 2.5ft 3s 20 25 mph 1015.6mb 83f 83f
4:00pm 2.5ft 4s 20 25 mph 1015.8mb 83f 83f
3:00pm 3ft 4s 18 25 mph 1016mb 83f 83f
2:00pm 2.5ft 6s 18 22 mph 1016.8mb 83f 83f
1:00pm 2.5ft 6s 18 22 mph 1017.6mb 83f 83f
12:00pm 2.5ft 6s 18 22 mph 1017.9mb 82f 83f
11:00am 3ft 7s 18 22 mph 1018.5mb 82f 83f
10:00am 2.5ft 5s 16 20 mph 1018.6mb 82f 83f
9:00am 2.5ft 6s 13 16 mph 1018.6mb 82f 83f
8:00am 2.5ft 5s 13 16 mph 1018.3mb 82f 83f
7:00am 3ft 5s 11 13 mph 1018.1mb 82f 82f
6:00am 3ft 5s 13 16 mph 1017.6mb 82f 82f
5:00am 3ft 6s 9 11 mph 1016.8mb 82f 82f
4:00am 3ft 5s 13 16 mph 1016.9mb 82f 82f
3:00am 3ft 5s 13 18 mph 1016.9mb 82f 82f
2:00am 3ft 5s 16 18 mph 1016.7mb 82f 82f
1:00am 3ft 6s 16 18 mph 1017.4mb 83f 82f
12:00am 2.5ft 5s 16 20 mph 1018mb 83f 82f
Sat 07/19 11:00pm 3ft 7s 16 18 mph 1018.2mb 83f 83f
10:00pm 3ft 5s 16 18 mph 1018.2mb 83f 83f
9:00pm 3ft 7s 13 16 mph 1017.9mb 82f 83f